sensor_id;sensor_type;location;lat;lon;timestamp;pressure;altitude;pressure_sealevel;temperature;humidity
55347;BME280;41218;55.700;38.270;2023-02-19T00:01:21;98375.97;;;-6.70;67.16
55347;BME280;41218;55.700;38.270;2023-02-19T00:06:23;98374.41;;;-6.71;67.34
55347;BME280;41218;55.700;38.270;2023-02-19T00:11:29;98371.19;;;-6.73;67.63
55347;BME280;41218;55.700;38.270;2023-02-19T00:16:34;98364.22;;;-6.74;66.90
55347;BME280;41218;55.700;38.270;2023-02-19T00:21:35;98361.00;;;-6.76;67.24
55347;BME280;41218;55.700;38.270;2023-02-19T00:26:37;98370.69;;;-6.75;67.36
55347;BME280;41218;55.700;38.270;2023-02-19T00:31:38;98359.63;;;-6.73;67.78
55347;BME280;41218;55.700;38.270;2023-02-19T00:36:40;98359.56;;;-6.68;67.60
55347;BME280;41218;55.700;38.270;2023-02-19T00:41:41;98359.56;;;-6.68;67.40
55347;BME280;41218;55.700;38.270;2023-02-19T00:46:46;98346.00;;;-6.77;67.91
55347;BME280;41218;55.700;38.270;2023-02-19T00:51:48;98344.63;;;-6.74;67.70
55347;BME280;41218;55.700;38.270;2023-02-19T00:56:49;98327.69;;;-6.75;67.68
55347;BME280;41218;55.700;38.270;2023-02-19T01:01:50;98332.25;;;-6.75;67.41
55347;BME280;41218;55.700;38.270;2023-02-19T01:06:51;98334.16;;;-6.76;67.74
55347;BME280;41218;55.700;38.270;2023-02-19T01:11:51;98329.56;;;-6.75;67.88
55347;BME280;41218;55.700;38.270;2023-02-19T01:16:52;98311.34;;;-6.78;67.87
55347;BME280;41218;55.700;38.270;2023-02-19T01:21:52;98313.38;;;-6.70;67.65
55347;BME280;41218;55.700;38.270;2023-02-19T01:26:53;98300.50;;;-6.73;68.00
55347;BME280;41218;55.700;38.270;2023-02-19T01:31:54;98307.22;;;-6.71;67.66
55347;BME280;41218;55.700;38.270;2023-02-19T01:36:54;98306.09;;;-6.70;67.44
55347;BME280;41218;55.700;38.270;2023-02-19T01:41:55;98297.47;;;-6.67;67.99
55347;BME280;41218;55.700;38.270;2023-02-19T01:46:55;98297.75;;;-6.68;67.90
55347;BME280;41218;55.700;38.270;2023-02-19T01:52:05;98304.72;;;-6.67;67.62
55347;BME280;41218;55.700;38.270;2023-02-19T01:57:17;98299.44;;;-6.72;68.38
55347;BME280;41218;55.700;38.270;2023-02-19T02:02:18;98288.97;;;-6.74;67.24
55347;BME280;41218;55.700;38.270;2023-02-19T02:07:19;98285.50;;;-6.74;67.40
55347;BME280;41218;55.700;38.270;2023-02-19T02:12:38;98279.63;;;-6.76;67.61
55347;BME280;41218;55.700;38.270;2023-02-19T02:18:01;98292.78;;;-6.75;67.67
55347;BME280;41218;55.700;38.270;2023-02-19T02:23:23;98276.31;;;-6.73;67.68
55347;BME280;41218;55.700;38.270;2023-02-19T02:38:44;98260.88;;;-6.81;67.93
55347;BME280;41218;55.700;38.270;2023-02-19T02:43:45;98259.84;;;-6.86;67.99
55347;BME280;41218;55.700;38.270;2023-02-19T02:48:49;98265.69;;;-6.78;68.12
55347;BME280;41218;55.700;38.270;2023-02-19T02:53:57;98264.00;;;-6.74;67.93
55347;BME280;41218;55.700;38.270;2023-02-19T02:59:24;98263.78;;;-6.78;67.80
55347;BME280;41218;55.700;38.270;2023-02-19T03:04:53;98267.56;;;-6.79;67.94
55347;BME280;41218;55.700;38.270;2023-02-19T03:10:19;98260.59;;;-6.80;67.44
55347;BME280;41218;55.700;38.270;2023-02-19T03:15:24;98253.25;;;-6.74;68.11
55347;BME280;41218;55.700;38.270;2023-02-19T03:20:49;98246.28;;;-6.75;67.27
55347;BME280;41218;55.700;38.270;2023-02-19T03:25:51;98236.13;;;-6.78;67.84
55347;BME280;41218;55.700;38.270;2023-02-19T03:31:03;98237.50;;;-6.81;67.93
55347;BME280;41218;55.700;38.270;2023-02-19T03:36:05;98242.00;;;-6.76;67.67
55347;BME280;41218;55.700;38.270;2023-02-19T03:52:19;98213.00;;;-6.79;67.51
55347;BME280;41218;55.700;38.270;2023-02-19T04:03:16;98213.63;;;-6.82;67.68
55347;BME280;41218;55.700;38.270;2023-02-19T04:08:21;98188.00;;;-6.94;67.90
55347;BME280;41218;55.700;38.270;2023-02-19T04:13:33;98208.25;;;-6.82;67.97
55347;BME280;41218;55.700;38.270;2023-02-19T04:18:37;98213.00;;;-6.79;67.94
55347;BME280;41218;55.700;38.270;2023-02-19T04:23:42;98213.84;;;-6.79;67.54
55347;BME280;41218;55.700;38.270;2023-02-19T04:28:43;98212.72;;;-6.78;68.04
55347;BME280;41218;55.700;38.270;2023-02-19T04:33:44;98208.25;;;-6.82;68.14
55347;BME280;41218;55.700;38.270;2023-02-19T04:38:44;98200.19;;;-6.82;68.41
55347;BME280;41218;55.700;38.270;2023-02-19T04:43:45;98197.41;;;-6.77;68.24
55347;BME280;41218;55.700;38.270;2023-02-19T04:48:45;98201.59;;;-6.71;67.88
55347;BME280;41218;55.700;38.270;2023-02-19T04:53:46;98195.72;;;-6.73;67.93
55347;BME280;41218;55.700;38.270;2023-02-19T04:58:46;98181.59;;;-6.79;68.53
55347;BME280;41218;55.700;38.270;2023-02-19T05:03:47;98171.34;;;-6.77;67.81
55347;BME280;41218;55.700;38.270;2023-02-19T05:08:47;98188.31;;;-6.62;68.10
55347;BME280;41218;55.700;38.270;2023-02-19T05:13:48;98185.91;;;-6.64;68.25
55347;BME280;41218;55.700;38.270;2023-02-19T05:18:49;98183.44;;;-6.60;68.12
55347;BME280;41218;55.700;38.270;2023-02-19T05:23:49;98180.13;;;-6.57;67.79
55347;BME280;41218;55.700;38.270;2023-02-19T05:28:51;98164.31;;;-6.59;68.49
55347;BME280;41218;55.700;38.270;2023-02-19T05:33:54;98166.41;;;-6.56;67.85
55347;BME280;41218;55.700;38.270;2023-02-19T05:38:56;98165.34;;;-6.55;67.66
55347;BME280;41218;55.700;38.270;2023-02-19T05:43:57;98166.63;;;-6.52;67.79
55347;BME280;41218;55.700;38.270;2023-02-19T05:48:57;98173.56;;;-6.51;67.62
55347;BME280;41218;55.700;38.270;2023-02-19T05:53:58;98177.09;;;-6.51;68.08
55347;BME280;41218;55.700;38.270;2023-02-19T05:59:01;98169.31;;;-6.52;68.12
55347;BME280;41218;55.700;38.270;2023-02-19T06:04:03;98169.53;;;-6.49;67.94
55347;BME280;41218;55.700;38.270;2023-02-19T06:09:04;98161.63;;;-6.45;68.55
55347;BME280;41218;55.700;38.270;2023-02-19T06:14:05;98155.69;;;-6.42;67.98
55347;BME280;41218;55.700;38.270;2023-02-19T06:19:06;98151.59;;;-6.39;68.05
55347;BME280;41218;55.700;38.270;2023-02-19T06:24:07;98142.94;;;-6.36;68.18
55347;BME280;41218;55.700;38.270;2023-02-19T06:29:08;98150.91;;;-6.31;68.26
55347;BME280;41218;55.700;38.270;2023-02-19T06:34:09;98148.41;;;-6.28;68.08
55347;BME280;41218;55.700;38.270;2023-02-19T06:39:09;98145.13;;;-6.25;68.18
55347;BME280;41218;55.700;38.270;2023-02-19T06:44:10;98136.47;;;-6.21;68.11
55347;BME280;41218;55.700;38.270;2023-02-19T06:49:10;98136.69;;;-6.18;67.94
55347;BME280;41218;55.700;38.270;2023-02-19T06:54:11;98137.75;;;-6.19;68.12
55347;BME280;41218;55.700;38.270;2023-02-19T06:59:14;98126.69;;;-6.17;68.07
55347;BME280;41218;55.700;38.270;2023-02-19T07:04:17;98128.97;;;-6.11;68.38
55347;BME280;41218;55.700;38.270;2023-02-19T07:09:18;98134.16;;;-6.00;68.36
55347;BME280;41218;55.700;38.270;2023-02-19T07:14:19;98128.84;;;-5.92;68.54
55347;BME280;41218;55.700;38.270;2023-02-19T07:19:20;98113.50;;;-5.91;68.38
55347;BME280;41218;55.700;38.270;2023-02-19T07:24:21;98129.22;;;-5.85;68.06
55347;BME280;41218;55.700;38.270;2023-02-19T07:29:21;98121.84;;;-5.79;67.95
55347;BME280;41218;55.700;38.270;2023-02-19T07:34:22;98123.63;;;-5.74;68.83
55347;BME280;41218;55.700;38.270;2023-02-19T07:39:22;98111.06;;;-5.65;68.25
55347;BME280;41218;55.700;38.270;2023-02-19T07:44:23;98072.84;;;-5.90;68.09
55347;BME280;41218;55.700;38.270;2023-02-19T07:49:23;98061.16;;;-5.85;68.05
55347;BME280;41218;55.700;38.270;2023-02-19T07:54:24;98047.19;;;-5.73;67.51
55347;BME280;41218;55.700;38.270;2023-02-19T07:59:25;98053.13;;;-5.63;67.64
55347;BME280;41218;55.700;38.270;2023-02-19T08:04:25;98089.59;;;-5.34;67.53
55347;BME280;41218;55.700;38.270;2023-02-19T08:09:26;98052.38;;;-5.54;67.56
55347;BME280;41218;55.700;38.270;2023-02-19T08:14:27;98032.38;;;-5.62;67.64
55347;BME280;41218;55.700;38.270;2023-02-19T08:19:27;98053.91;;;-5.39;67.83
55347;BME280;41218;55.700;38.270;2023-02-19T08:24:28;98047.78;;;-5.31;67.65
55347;BME280;41218;55.700;38.270;2023-02-19T08:29:30;98050.75;;;-5.19;67.63
55347;BME280;41218;55.700;38.270;2023-02-19T08:34:30;98031.41;;;-5.21;67.60
55347;BME280;41218;55.700;38.270;2023-02-19T08:39:31;98020.25;;;-5.28;67.10
55347;BME280;41218;55.700;38.270;2023-02-19T08:44:32;98042.16;;;-5.21;67.34
55347;BME280;41218;55.700;38.270;2023-02-19T08:49:32;98074.13;;;-4.97;67.66
55347;BME280;41218;55.700;38.270;2023-02-19T08:54:33;98062.28;;;-4.96;67.25
55347;BME280;41218;55.700;38.270;2023-02-19T08:59:33;98052.47;;;-4.92;67.21
55347;BME280;41218;55.700;38.270;2023-02-19T09:04:34;98057.41;;;-4.85;67.20
55347;BME280;41218;55.700;38.270;2023-02-19T09:09:37;98051.59;;;-4.78;67.07
55347;BME280;41218;55.700;38.270;2023-02-19T09:14:37;98045.09;;;-4.69;67.12
55347;BME280;41218;55.700;38.270;2023-02-19T09:19:38;98047.53;;;-4.58;67.20
55347;BME280;41218;55.700;38.270;2023-02-19T09:24:38;98056.28;;;-4.53;66.99
55347;BME280;41218;55.700;38.270;2023-02-19T09:29:39;98023.59;;;-4.51;66.65
55347;BME280;41218;55.700;38.270;2023-02-19T09:34:39;98035.19;;;-4.42;66.85
55347;BME280;41218;55.700;38.270;2023-02-19T09:39:40;98020.75;;;-4.46;66.44
55347;BME280;41218;55.700;38.270;2023-02-19T09:44:43;98025.53;;;-4.52;66.13
55347;BME280;41218;55.700;38.270;2023-02-19T09:49:47;98017.91;;;-4.50;66.72
55347;BME280;41218;55.700;38.270;2023-02-19T09:54:52;98008.22;;;-4.42;66.64
55347;BME280;41218;55.700;38.270;2023-02-19T10:05:15;98007.00;;;-4.36;66.14
55347;BME280;41218;55.700;38.270;2023-02-19T10:15:26;97976.50;;;-4.45;66.17
55347;BME280;41218;55.700;38.270;2023-02-19T10:20:28;97985.88;;;-4.43;65.80
55347;BME280;41218;55.700;38.270;2023-02-19T10:25:30;97987.44;;;-4.50;65.67
55347;BME280;41218;55.700;38.270;2023-02-19T10:30:33;97990.00;;;-4.45;66.65
55347;BME280;41218;55.700;38.270;2023-02-19T10:35:37;97982.03;;;-4.50;66.12
55347;BME280;41218;55.700;38.270;2023-02-19T10:40:45;97985.22;;;-4.48;66.49
55347;BME280;41218;55.700;38.270;2023-02-19T10:45:47;97988.25;;;-4.50;66.49
55347;BME280;41218;55.700;38.270;2023-02-19T10:50:58;97984.25;;;-4.52;66.47
55347;BME280;41218;55.700;38.270;2023-02-19T10:56:22;97986.50;;;-4.46;66.80
55347;BME280;41218;55.700;38.270;2023-02-19T11:01:24;97981.25;;;-4.42;66.58
55347;BME280;41218;55.700;38.270;2023-02-19T11:06:26;97945.22;;;-4.64;66.47
55347;BME280;41218;55.700;38.270;2023-02-19T11:11:28;97977.28;;;-4.45;66.63
55347;BME280;41218;55.700;38.270;2023-02-19T11:16:55;97990.31;;;-4.47;66.48
55347;BME280;41218;55.700;38.270;2023-02-19T11:21:58;97979.50;;;-4.47;66.42
55347;BME280;41218;55.700;38.270;2023-02-19T11:27:04;97984.44;;;-4.49;66.35
55347;BME280;41218;55.700;38.270;2023-02-19T11:37:24;97973.94;;;-4.59;66.56
55347;BME280;41218;55.700;38.270;2023-02-19T11:48:25;97967.13;;;-4.56;66.56
55347;BME280;41218;55.700;38.270;2023-02-19T11:53:34;97972.50;;;-4.56;66.68
55347;BME280;41218;55.700;38.270;2023-02-19T11:58:59;97967.28;;;-4.53;67.24
55347;BME280;41218;55.700;38.270;2023-02-19T12:15:28;97966.38;;;-4.39;66.92
55347;BME280;41218;55.700;38.270;2023-02-19T12:20:33;97970.66;;;-4.38;66.15
55347;BME280;41218;55.700;38.270;2023-02-19T12:41:17;97958.44;;;-4.27;66.58
55347;BME280;41218;55.700;38.270;2023-02-19T12:46:34;97949.72;;;-4.24;66.81
55347;BME280;41218;55.700;38.270;2023-02-19T12:52:11;97948.44;;;-4.27;66.50
55347;BME280;41218;55.700;38.270;2023-02-19T12:57:13;97945.28;;;-4.29;66.61
55347;BME280;41218;55.700;38.270;2023-02-19T13:02:20;97948.16;;;-4.34;65.96
55347;BME280;41218;55.700;38.270;2023-02-19T13:07:32;97958.28;;;-4.39;66.70
55347;BME280;41218;55.700;38.270;2023-02-19T13:12:37;97952.53;;;-4.47;66.63
55347;BME280;41218;55.700;38.270;2023-02-19T13:17:54;97961.44;;;-4.46;66.44
55347;BME280;41218;55.700;38.270;2023-02-19T13:33:57;97961.41;;;-4.55;66.10
55347;BME280;41218;55.700;38.270;2023-02-19T13:39:04;97959.38;;;-4.58;66.67
55347;BME280;41218;55.700;38.270;2023-02-19T13:44:07;97953.00;;;-4.62;66.19
55347;BME280;41218;55.700;38.270;2023-02-19T13:54:32;97968.84;;;-4.69;66.86
55347;BME280;41218;55.700;38.270;2023-02-19T13:59:38;97946.47;;;-4.78;66.71
55347;BME280;41218;55.700;38.270;2023-02-19T14:04:59;97960.91;;;-4.74;66.77
55347;BME280;41218;55.700;38.270;2023-02-19T14:10:00;97944.09;;;-4.80;66.82
55347;BME280;41218;55.700;38.270;2023-02-19T14:20:41;97934.19;;;-4.93;66.89
55347;BME280;41218;55.700;38.270;2023-02-19T14:25:45;97940.38;;;-4.93;66.70
55347;BME280;41218;55.700;38.270;2023-02-19T14:30:59;97936.22;;;-4.99;66.33
55347;BME280;41218;55.700;38.270;2023-02-19T14:41:17;97928.78;;;-5.02;67.23
55347;BME280;41218;55.700;38.270;2023-02-19T14:46:31;97917.03;;;-5.06;67.22
55347;BME280;41218;55.700;38.270;2023-02-19T14:51:42;97921.66;;;-5.07;67.31
55347;BME280;41218;55.700;38.270;2023-02-19T14:56:47;97911.78;;;-5.11;67.62
55347;BME280;41218;55.700;38.270;2023-02-19T15:02:00;97907.53;;;-5.12;67.67
55347;BME280;41218;55.700;38.270;2023-02-19T15:07:04;97913.38;;;-5.10;67.00
55347;BME280;41218;55.700;38.270;2023-02-19T15:12:06;97906.41;;;-5.11;67.47
55347;BME280;41218;55.700;38.270;2023-02-19T15:17:26;97916.56;;;-5.08;67.77
55347;BME280;41218;55.700;38.270;2023-02-19T15:22:28;97904.66;;;-5.16;67.34
55347;BME280;41218;55.700;38.270;2023-02-19T15:27:31;97915.41;;;-5.16;66.84
55347;BME280;41218;55.700;38.270;2023-02-19T15:32:34;97911.47;;;-5.18;67.06
55347;BME280;41218;55.700;38.270;2023-02-19T15:37:35;97909.06;;;-5.20;67.42
55347;BME280;41218;55.700;38.270;2023-02-19T15:42:36;97896.84;;;-5.26;67.70
55347;BME280;41218;55.700;38.270;2023-02-19T15:52:47;97896.25;;;-5.23;67.89
55347;BME280;41218;55.700;38.270;2023-02-19T16:03:16;97886.06;;;-5.26;67.87
55347;BME280;41218;55.700;38.270;2023-02-19T16:08:19;97886.84;;;-5.34;67.63
55347;BME280;41218;55.700;38.270;2023-02-19T16:13:23;97877.16;;;-5.35;68.08
55347;BME280;41218;55.700;38.270;2023-02-19T16:18:24;97882.41;;;-5.30;67.65
55347;BME280;41218;55.700;38.270;2023-02-19T16:23:25;97881.44;;;-5.34;67.94
55347;BME280;41218;55.700;38.270;2023-02-19T16:28:27;97874.91;;;-5.42;67.94
55347;BME280;41218;55.700;38.270;2023-02-19T16:33:43;97860.00;;;-5.48;67.67
55347;BME280;41218;55.700;38.270;2023-02-19T16:43:59;97858.44;;;-5.49;68.27
55347;BME280;41218;55.700;38.270;2023-02-19T16:49:07;97851.59;;;-5.55;67.67
55347;BME280;41218;55.700;38.270;2023-02-19T16:54:10;97860.31;;;-5.50;67.86
55347;BME280;41218;55.700;38.270;2023-02-19T16:59:10;97866.19;;;-5.48;67.74
55347;BME280;41218;55.700;38.270;2023-02-19T17:04:12;97842.88;;;-5.61;67.72
55347;BME280;41218;55.700;38.270;2023-02-19T17:09:14;97854.13;;;-5.59;68.03
55347;BME280;41218;55.700;38.270;2023-02-19T17:14:15;97861.56;;;-5.56;67.99
55347;BME280;41218;55.700;38.270;2023-02-19T17:19:18;97857.97;;;-5.51;68.24
55347;BME280;41218;55.700;38.270;2023-02-19T17:24:18;97854.44;;;-5.52;68.42
55347;BME280;41218;55.700;38.270;2023-02-19T17:29:19;97851.59;;;-5.55;68.48
55347;BME280;41218;55.700;38.270;2023-02-19T17:34:20;97842.09;;;-5.53;68.00
55347;BME280;41218;55.700;38.270;2023-02-19T17:39:21;97843.06;;;-5.49;67.68
55347;BME280;41218;55.700;38.270;2023-02-19T17:44:22;97841.63;;;-5.55;68.21
55347;BME280;41218;55.700;38.270;2023-02-19T17:49:23;97831.16;;;-5.56;68.32
55347;BME280;41218;55.700;38.270;2023-02-19T17:54:23;97834.16;;;-5.58;68.19
55347;BME280;41218;55.700;38.270;2023-02-19T17:59:24;97840.34;;;-5.57;68.48
55347;BME280;41218;55.700;38.270;2023-02-19T18:04:25;97839.53;;;-5.58;68.26
55347;BME280;41218;55.700;38.270;2023-02-19T18:09:27;97840.97;;;-5.60;68.44
55347;BME280;41218;55.700;38.270;2023-02-19T18:14:28;97823.72;;;-5.59;68.23
55347;BME280;41218;55.700;38.270;2023-02-19T18:19:30;97829.09;;;-5.59;68.09
55347;BME280;41218;55.700;38.270;2023-02-19T18:24:32;97821.81;;;-5.59;68.44
55347;BME280;41218;55.700;38.270;2023-02-19T18:29:32;97813.09;;;-5.56;68.32
55347;BME280;41218;55.700;38.270;2023-02-19T18:34:33;97817.88;;;-5.53;68.91
55347;BME280;41218;55.700;38.270;2023-02-19T18:39:34;97816.28;;;-5.54;68.12
55347;BME280;41218;55.700;38.270;2023-02-19T18:44:34;97814.72;;;-5.55;68.56
55347;BME280;41218;55.700;38.270;2023-02-19T18:49:35;97798.38;;;-5.58;68.34
55347;BME280;41218;55.700;38.270;2023-02-19T18:54:36;97783.47;;;-5.65;68.12
55347;BME280;41218;55.700;38.270;2023-02-19T18:59:39;97804.25;;;-5.56;68.39
55347;BME280;41218;55.700;38.270;2023-02-19T19:04:39;97800.13;;;-5.54;68.52
55347;BME280;41218;55.700;38.270;2023-02-19T19:09:40;97788.72;;;-5.59;68.47
55347;BME280;41218;55.700;38.270;2023-02-19T19:14:43;97788.41;;;-5.58;68.34
55347;BME280;41218;55.700;38.270;2023-02-19T19:19:44;97787.47;;;-5.53;68.45
55347;BME280;41218;55.700;38.270;2023-02-19T19:24:45;97795.41;;;-5.48;68.52
55347;BME280;41218;55.700;38.270;2023-02-19T19:29:45;97794.75;;;-5.54;68.19
55347;BME280;41218;55.700;38.270;2023-02-19T19:34:48;97793.47;;;-5.56;68.50
55347;BME280;41218;55.700;38.270;2023-02-19T19:39:49;97792.88;;;-5.53;68.72
55347;BME280;41218;55.700;38.270;2023-02-19T19:44:49;97791.44;;;-5.51;68.16
55347;BME280;41218;55.700;38.270;2023-02-19T19:49:50;97787.59;;;-5.58;68.35
55347;BME280;41218;55.700;38.270;2023-02-19T19:54:50;97780.19;;;-5.53;68.61
55347;BME280;41218;55.700;38.270;2023-02-19T19:59:54;97789.06;;;-5.52;68.36
55347;BME280;41218;55.700;38.270;2023-02-19T20:04:54;97782.88;;;-5.53;68.20
55347;BME280;41218;55.700;38.270;2023-02-19T20:09:55;97790.66;;;-5.51;68.13
55347;BME280;41218;55.700;38.270;2023-02-19T20:14:55;97780.97;;;-5.52;68.68
55347;BME280;41218;55.700;38.270;2023-02-19T20:19:56;97788.25;;;-5.53;68.72
55347;BME280;41218;55.700;38.270;2023-02-19T20:24:56;97769.25;;;-5.56;68.46
55347;BME280;41218;55.700;38.270;2023-02-19T20:29:57;97773.19;;;-5.54;68.46
55347;BME280;41218;55.700;38.270;2023-02-19T20:34:57;97783.66;;;-5.52;68.28
55347;BME280;41218;55.700;38.270;2023-02-19T20:39:58;97768.47;;;-5.57;68.32
55347;BME280;41218;55.700;38.270;2023-02-19T20:44:58;97775.91;;;-5.54;68.49
55347;BME280;41218;55.700;38.270;2023-02-19T20:49:59;97770.03;;;-5.56;68.41
55347;BME280;41218;55.700;38.270;2023-02-19T20:54:59;97767.34;;;-5.56;68.70
55347;BME280;41218;55.700;38.270;2023-02-19T21:00:00;97773.53;;;-5.55;68.82
55347;BME280;41218;55.700;38.270;2023-02-19T21:05:00;97767.81;;;-5.54;68.47
55347;BME280;41218;55.700;38.270;2023-02-19T21:10:01;97755.63;;;-5.60;68.73
55347;BME280;41218;55.700;38.270;2023-02-19T21:15:03;97769.25;;;-5.56;68.13
55347;BME280;41218;55.700;38.270;2023-02-19T21:20:04;97768.63;;;-5.53;68.74
55347;BME280;41218;55.700;38.270;2023-02-19T21:25:05;97768.78;;;-5.50;68.47
55347;BME280;41218;55.700;38.270;2023-02-19T21:30:06;97765.94;;;-5.53;68.63
55347;BME280;41218;55.700;38.270;2023-02-19T21:35:07;97761.66;;;-5.54;68.17
55347;BME280;41218;55.700;38.270;2023-02-19T21:40:08;97757.53;;;-5.60;68.36
55347;BME280;41218;55.700;38.270;2023-02-19T21:45:09;97759.91;;;-5.59;68.52
55347;BME280;41218;55.700;38.270;2023-02-19T21:50:09;97760.03;;;-5.64;68.58
55347;BME280;41218;55.700;38.270;2023-02-19T21:55:10;97767.31;;;-5.65;68.48
55347;BME280;41218;55.700;38.270;2023-02-19T22:00:11;97763.38;;;-5.67;68.33
55347;BME280;41218;55.700;38.270;2023-02-19T22:05:12;97763.06;;;-5.66;68.99
55347;BME280;41218;55.700;38.270;2023-02-19T22:10:12;97746.56;;;-5.64;69.23
55347;BME280;41218;55.700;38.270;2023-02-19T22:15:14;97761.34;;;-5.61;68.96
55347;BME280;41218;55.700;38.270;2023-02-19T22:20:15;97753.56;;;-5.63;68.98
55347;BME280;41218;55.700;38.270;2023-02-19T22:25:16;97753.88;;;-5.65;68.68
55347;BME280;41218;55.700;38.270;2023-02-19T22:30:17;97752.78;;;-5.64;68.52
55347;BME280;41218;55.700;38.270;2023-02-19T22:35:17;97756.88;;;-5.66;68.30
55347;BME280;41218;55.700;38.270;2023-02-19T22:40:18;97755.28;;;-5.67;68.71
55347;BME280;41218;55.700;38.270;2023-02-19T22:45:18;97755.47;;;-5.64;68.37
55347;BME280;41218;55.700;38.270;2023-02-19T22:50:20;97758.16;;;-5.64;68.85
55347;BME280;41218;55.700;38.270;2023-02-19T22:55:21;97742.94;;;-5.68;68.52
55347;BME280;41218;55.700;38.270;2023-02-19T23:00:23;97753.56;;;-5.63;68.74
55347;BME280;41218;55.700;38.270;2023-02-19T23:05:23;97740.41;;;-5.73;68.73
55347;BME280;41218;55.700;38.270;2023-02-19T23:10:24;97754.50;;;-5.68;68.73
55347;BME280;41218;55.700;38.270;2023-02-19T23:15:26;97758.78;;;-5.67;68.57
55347;BME280;41218;55.700;38.270;2023-02-19T23:20:26;97752.56;;;-5.76;68.81
55347;BME280;41218;55.700;38.270;2023-02-19T23:25:27;97756.84;;;-5.75;69.02
55347;BME280;41218;55.700;38.270;2023-02-19T23:30:27;97763.19;;;-5.71;68.33
55347;BME280;41218;55.700;38.270;2023-02-19T23:35:28;97762.72;;;-5.73;68.70
55347;BME280;41218;55.700;38.270;2023-02-19T23:40:29;97773.78;;;-5.74;68.56
55347;BME280;41218;55.700;38.270;2023-02-19T23:45:30;97758.25;;;-5.77;68.47
55347;BME280;41218;55.700;38.270;2023-02-19T23:50:31;97767.59;;;-5.75;68.80
55347;BME280;41218;55.700;38.270;2023-02-19T23:55:31;97769.19;;;-5.74;68.53
